sensor_id;sensor_type;location;lat;lon;timestamp;temperature;humidity
11242;DHT22;5678;52.370;9.006;2023-12-07T00:01:56;2.20;99.90
11242;DHT22;5678;52.370;9.006;2023-12-07T00:04:26;2.20;99.90
11242;DHT22;5678;52.370;9.006;2023-12-07T00:06:54;2.20;99.90
11242;DHT22;5678;52.370;9.006;2023-12-07T00:09:22;2.20;99.90
11242;DHT22;5678;52.370;9.006;2023-12-07T00:11:50;2.20;99.90
11242;DHT22;5678;52.370;9.006;2023-12-07T00:14:18;2.20;99.90
11242;DHT22;5678;52.370;9.006;2023-12-07T00:16:46;2.20;99.90
11242;DHT22;5678;52.370;9.006;2023-12-07T00:19:15;2.10;99.90
11242;DHT22;5678;52.370;9.006;2023-12-07T00:21:45;2.00;99.90
11242;DHT22;5678;52.370;9.006;2023-12-07T00:24:13;2.20;99.90
11242;DHT22;5678;52.370;9.006;2023-12-07T00:26:41;2.20;99.90
11242;DHT22;5678;52.370;9.006;2023-12-07T00:29:09;2.20;99.90
11242;DHT22;5678;52.370;9.006;2023-12-07T00:31:37;2.20;99.90
11242;DHT22;5678;52.370;9.006;2023-12-07T00:34:05;2.00;99.90
11242;DHT22;5678;52.370;9.006;2023-12-07T00:36:33;1.90;99.90
11242;DHT22;5678;52.370;9.006;2023-12-07T00:39:03;2.20;99.90
11242;DHT22;5678;52.370;9.006;2023-12-07T00:41:31;2.20;99.90
11242;DHT22;5678;52.370;9.006;2023-12-07T00:43:59;2.20;99.90
11242;DHT22;5678;52.370;9.006;2023-12-07T00:46:27;2.20;99.90
11242;DHT22;5678;52.370;9.006;2023-12-07T00:48:56;2.20;99.90
11242;DHT22;5678;52.370;9.006;2023-12-07T00:51:24;2.20;99.90
11242;DHT22;5678;52.370;9.006;2023-12-07T00:53:52;2.50;99.90
11242;DHT22;5678;52.370;9.006;2023-12-07T00:56:21;2.30;99.90
11242;DHT22;5678;52.370;9.006;2023-12-07T00:58:49;2.10;99.90
11242;DHT22;5678;52.370;9.006;2023-12-07T01:01:17;2.10;99.90
11242;DHT22;5678;52.370;9.006;2023-12-07T01:03:45;2.30;99.90
11242;DHT22;5678;52.370;9.006;2023-12-07T01:06:14;3.40;99.90
11242;DHT22;5678;52.370;9.006;2023-12-07T01:08:43;2.30;99.90
11242;DHT22;5678;52.370;9.006;2023-12-07T05:27:06;2.10;99.90
11242;DHT22;5678;52.370;9.006;2023-12-07T05:29:39;2.10;99.90
11242;DHT22;5678;52.370;9.006;2023-12-07T05:32:13;2.10;99.90
11242;DHT22;5678;52.370;9.006;2023-12-07T05:34:48;3.60;99.90
11242;DHT22;5678;52.370;9.006;2023-12-07T05:37:17;3.30;99.90
11242;DHT22;5678;52.370;9.006;2023-12-07T05:39:45;3.40;99.90
11242;DHT22;5678;52.370;9.006;2023-12-07T05:42:15;2.90;99.90
11242;DHT22;5678;52.370;9.006;2023-12-07T05:44:44;2.00;99.90
11242;DHT22;5678;52.370;9.006;2023-12-07T05:47:12;2.10;99.90
11242;DHT22;5678;52.370;9.006;2023-12-07T05:49:40;1.80;99.90
11242;DHT22;5678;52.370;9.006;2023-12-07T05:52:08;1.60;99.90
11242;DHT22;5678;52.370;9.006;2023-12-07T05:54:36;0.00;99.90
11242;DHT22;5678;52.370;9.006;2023-12-07T05:57:05;2.40;99.90
11242;DHT22;5678;52.370;9.006;2023-12-07T05:59:36;3.70;99.90
11242;DHT22;5678;52.370;9.006;2023-12-07T06:02:04;1.50;99.90
11242;DHT22;5678;52.370;9.006;2023-12-07T06:04:33;3.10;99.90
11242;DHT22;5678;52.370;9.006;2023-12-07T06:07:02;3.50;99.90
11242;DHT22;5678;52.370;9.006;2023-12-07T06:09:30;2.00;99.90
11242;DHT22;5678;52.370;9.006;2023-12-07T06:11:59;4.30;99.90
11242;DHT22;5678;52.370;9.006;2023-12-07T06:14:28;3.80;99.90
11242;DHT22;5678;52.370;9.006;2023-12-07T06:16:57;2.40;99.90
11242;DHT22;5678;52.370;9.006;2023-12-07T06:19:27;3.00;99.90
11242;DHT22;5678;52.370;9.006;2023-12-07T06:21:57;3.30;99.90
11242;DHT22;5678;52.370;9.006;2023-12-07T06:24:26;3.50;99.90
11242;DHT22;5678;52.370;9.006;2023-12-07T06:26:55;2.80;99.90
11242;DHT22;5678;52.370;9.006;2023-12-07T06:29:24;3.80;99.90
11242;DHT22;5678;52.370;9.006;2023-12-07T06:31:58;1.90;99.90
11242;DHT22;5678;52.370;9.006;2023-12-07T06:34:28;2.80;99.90
11242;DHT22;5678;52.370;9.006;2023-12-07T06:37:11;1.90;99.90
11242;DHT22;5678;52.370;9.006;2023-12-07T06:39:40;2.20;99.90
11242;DHT22;5678;52.370;9.006;2023-12-07T06:42:10;3.00;99.90
11242;DHT22;5678;52.370;9.006;2023-12-07T06:44:40;2.00;99.90
11242;DHT22;5678;52.370;9.006;2023-12-07T06:47:11;1.90;99.90
11242;DHT22;5678;52.370;9.006;2023-12-07T06:49:40;3.70;99.90
11242;DHT22;5678;52.370;9.006;2023-12-07T06:52:19;2.30;99.90
11242;DHT22;5678;52.370;9.006;2023-12-07T06:54:49;3.80;99.90
11242;DHT22;5678;52.370;9.006;2023-12-07T06:57:21;3.10;99.90
11242;DHT22;5678;52.370;9.006;2023-12-07T06:59:52;1.90;99.90
11242;DHT22;5678;52.370;9.006;2023-12-07T07:02:23;3.80;99.90
11242;DHT22;5678;52.370;9.006;2023-12-07T07:04:53;2.50;99.90
11242;DHT22;5678;52.370;9.006;2023-12-07T07:07:22;3.80;83.20
11242;DHT22;5678;52.370;9.006;2023-12-07T07:09:50;1.60;99.90
11242;DHT22;5678;52.370;9.006;2023-12-07T07:12:18;3.80;99.90
11242;DHT22;5678;52.370;9.006;2023-12-07T07:14:46;1.80;99.90
11242;DHT22;5678;52.370;9.006;2023-12-07T07:17:15;2.90;99.90
11242;DHT22;5678;52.370;9.006;2023-12-07T07:19:45;1.80;14.40
11242;DHT22;5678;52.370;9.006;2023-12-07T07:22:14;1.60;25.20
11242;DHT22;5678;52.370;9.006;2023-12-07T07:24:42;4.00;26.10
11242;DHT22;5678;52.370;9.006;2023-12-07T07:27:10;1.50;1.00
11242;DHT22;5678;52.370;9.006;2023-12-07T07:29:39;3.00;1.00
11242;DHT22;5678;52.370;9.006;2023-12-07T07:32:07;2.00;31.90
11242;DHT22;5678;52.370;9.006;2023-12-07T07:34:35;2.60;1.00
11242;DHT22;5678;52.370;9.006;2023-12-07T07:37:05;3.40;1.00
11242;DHT22;5678;52.370;9.006;2023-12-07T07:39:34;3.70;1.00
11242;DHT22;5678;52.370;9.006;2023-12-07T07:42:02;1.60;1.00
11242;DHT22;5678;52.370;9.006;2023-12-07T07:44:31;1.90;1.00
11242;DHT22;5678;52.370;9.006;2023-12-07T07:46:59;3.30;1.00
11242;DHT22;5678;52.370;9.006;2023-12-07T07:49:27;2.40;1.00
11242;DHT22;5678;52.370;9.006;2023-12-07T07:51:55;1.90;1.00
11242;DHT22;5678;52.370;9.006;2023-12-07T07:54:26;1.60;1.00
11242;DHT22;5678;52.370;9.006;2023-12-07T07:56:54;4.30;1.00
11242;DHT22;5678;52.370;9.006;2023-12-07T07:59:22;1.70;1.00
11242;DHT22;5678;52.370;9.006;2023-12-07T08:01:50;1.60;1.00
11242;DHT22;5678;52.370;9.006;2023-12-07T08:04:19;3.90;1.00
11242;DHT22;5678;52.370;9.006;2023-12-07T08:06:47;2.00;1.00
11242;DHT22;5678;52.370;9.006;2023-12-07T08:09:15;3.10;1.00
11242;DHT22;5678;52.370;9.006;2023-12-07T08:11:45;3.50;1.00
11242;DHT22;5678;52.370;9.006;2023-12-07T08:14:13;3.60;1.00
11242;DHT22;5678;52.370;9.006;2023-12-07T08:16:43;2.00;1.00
11242;DHT22;5678;52.370;9.006;2023-12-07T08:19:13;2.00;1.00
11242;DHT22;5678;52.370;9.006;2023-12-07T08:21:41;3.00;1.00
11242;DHT22;5678;52.370;9.006;2023-12-07T08:24:10;1.80;1.00
11242;DHT22;5678;52.370;9.006;2023-12-07T08:26:39;2.50;1.00
11242;DHT22;5678;52.370;9.006;2023-12-07T08:29:09;1.80;1.00
11242;DHT22;5678;52.370;9.006;2023-12-07T08:31:37;4.10;1.00
11242;DHT22;5678;52.370;9.006;2023-12-07T08:34:05;2.00;1.00
11242;DHT22;5678;52.370;9.006;2023-12-07T08:36:34;4.30;1.00
11242;DHT22;5678;52.370;9.006;2023-12-07T08:39:02;2.60;1.00
11242;DHT22;5678;52.370;9.006;2023-12-07T08:41:30;2.20;1.00
11242;DHT22;5678;52.370;9.006;2023-12-07T08:43:58;2.20;1.00
11242;DHT22;5678;52.370;9.006;2023-12-07T08:46:28;3.10;1.00
11242;DHT22;5678;52.370;9.006;2023-12-07T08:48:56;2.30;1.00
11242;DHT22;5678;52.370;9.006;2023-12-07T08:51:24;4.30;1.00
11242;DHT22;5678;52.370;9.006;2023-12-07T08:53:52;3.00;1.00
11242;DHT22;5678;52.370;9.006;2023-12-07T08:56:23;2.30;1.00
11242;DHT22;5678;52.370;9.006;2023-12-07T08:58:52;4.40;1.00
11242;DHT22;5678;52.370;9.006;2023-12-07T09:01:20;3.50;1.00
11242;DHT22;5678;52.370;9.006;2023-12-07T09:04:00;1.90;1.00
11242;DHT22;5678;52.370;9.006;2023-12-07T09:06:28;4.40;1.00
11242;DHT22;5678;52.370;9.006;2023-12-07T09:08:57;3.80;1.00
11242;DHT22;5678;52.370;9.006;2023-12-07T09:11:25;2.20;1.00
11242;DHT22;5678;52.370;9.006;2023-12-07T09:13:53;2.40;1.00
11242;DHT22;5678;52.370;9.006;2023-12-07T09:16:21;2.50;1.00
11242;DHT22;5678;52.370;9.006;2023-12-07T09:18:49;2.20;1.00
11242;DHT22;5678;52.370;9.006;2023-12-07T09:21:19;2.60;1.00
11242;DHT22;5678;52.370;9.006;2023-12-07T09:23:47;2.60;1.00
11242;DHT22;5678;52.370;9.006;2023-12-07T09:26:15;2.70;1.00
11242;DHT22;5678;52.370;9.006;2023-12-07T09:28:43;2.70;1.00
11242;DHT22;5678;52.370;9.006;2023-12-07T09:31:11;3.90;1.00
11242;DHT22;5678;52.370;9.006;2023-12-07T09:33:39;2.70;1.00
11242;DHT22;5678;52.370;9.006;2023-12-07T09:36:08;2.70;1.00
11242;DHT22;5678;52.370;9.006;2023-12-07T09:38:39;2.80;1.00
11242;DHT22;5678;52.370;9.006;2023-12-07T09:41:07;4.70;1.00
11242;DHT22;5678;52.370;9.006;2023-12-07T09:43:35;4.30;1.00
11242;DHT22;5678;52.370;9.006;2023-12-07T09:46:04;2.90;1.00
11242;DHT22;5678;52.370;9.006;2023-12-07T09:48:32;2.90;1.00
11242;DHT22;5678;52.370;9.006;2023-12-07T09:51:00;3.00;1.00
11242;DHT22;5678;52.370;9.006;2023-12-07T09:53:29;3.00;1.00
11242;DHT22;5678;52.370;9.006;2023-12-07T09:56:01;4.00;1.00
11242;DHT22;5678;52.370;9.006;2023-12-07T09:58:29;4.60;1.00
11242;DHT22;5678;52.370;9.006;2023-12-07T10:01:07;2.90;1.00
11242;DHT22;5678;52.370;9.006;2023-12-07T10:03:35;2.80;1.00
11242;DHT22;5678;52.370;9.006;2023-12-07T10:06:04;4.00;1.00
11242;DHT22;5678;52.370;9.006;2023-12-07T10:08:33;3.20;1.00
11242;DHT22;5678;52.370;9.006;2023-12-07T10:11:08;3.00;1.00
11242;DHT22;5678;52.370;9.006;2023-12-07T10:13:37;3.80;1.00
11242;DHT22;5678;52.370;9.006;2023-12-07T10:16:10;3.60;1.00
11242;DHT22;5678;52.370;9.006;2023-12-07T10:18:39;3.30;1.00
11242;DHT22;5678;52.370;9.006;2023-12-07T10:21:10;3.30;1.00
11242;DHT22;5678;52.370;9.006;2023-12-07T10:23:41;3.90;1.00
11242;DHT22;5678;52.370;9.006;2023-12-07T10:26:13;3.90;1.00
11242;DHT22;5678;52.370;9.006;2023-12-07T10:28:42;3.40;1.00
11242;DHT22;5678;52.370;9.006;2023-12-07T10:31:11;3.10;1.00
11242;DHT22;5678;52.370;9.006;2023-12-07T10:33:39;3.80;1.00
11242;DHT22;5678;52.370;9.006;2023-12-07T10:36:09;4.30;1.00
11242;DHT22;5678;52.370;9.006;2023-12-07T10:38:37;3.50;1.00
11242;DHT22;5678;52.370;9.006;2023-12-07T10:41:09;5.30;1.00
11242;DHT22;5678;52.370;9.006;2023-12-07T10:43:43;4.60;1.00
11242;DHT22;5678;52.370;9.006;2023-12-07T10:46:14;3.60;1.00
11242;DHT22;5678;52.370;9.006;2023-12-07T10:48:44;3.60;1.00
11242;DHT22;5678;52.370;9.006;2023-12-07T10:51:22;6.00;1.00
11242;DHT22;5678;52.370;9.006;2023-12-07T10:53:51;3.90;1.00
11242;DHT22;5678;52.370;9.006;2023-12-07T10:56:28;4.80;1.00
11242;DHT22;5678;52.370;9.006;2023-12-07T10:58:58;5.60;99.90
11242;DHT22;5678;52.370;9.006;2023-12-07T11:01:27;4.40;99.90
11242;DHT22;5678;52.370;9.006;2023-12-07T11:03:56;4.80;99.90
11242;DHT22;5678;52.370;9.006;2023-12-07T11:06:25;4.90;99.90
11242;DHT22;5678;52.370;9.006;2023-12-07T11:08:58;5.00;99.90
11242;DHT22;5678;52.370;9.006;2023-12-07T11:11:29;3.90;1.00
11242;DHT22;5678;52.370;9.006;2023-12-07T11:14:03;4.10;1.00
11242;DHT22;5678;52.370;9.006;2023-12-07T11:16:34;5.40;48.10
11242;DHT22;5678;52.370;9.006;2023-12-07T11:19:04;5.10;1.00
11242;DHT22;5678;52.370;9.006;2023-12-07T11:21:37;5.50;99.90
11242;DHT22;5678;52.370;9.006;2023-12-07T11:24:06;6.10;1.00
11242;DHT22;5678;52.370;9.006;2023-12-07T11:26:35;4.60;1.00
11242;DHT22;5678;52.370;9.006;2023-12-07T11:29:05;5.50;99.90
11242;DHT22;5678;52.370;9.006;2023-12-07T11:31:39;5.10;99.90
11242;DHT22;5678;52.370;9.006;2023-12-07T11:34:07;5.30;99.90
11242;DHT22;5678;52.370;9.006;2023-12-07T11:36:40;5.10;1.00
11242;DHT22;5678;52.370;9.006;2023-12-07T11:39:17;6.10;99.90
11242;DHT22;5678;52.370;9.006;2023-12-07T11:41:56;4.60;1.00
11242;DHT22;5678;52.370;9.006;2023-12-07T11:44:36;4.50;1.00
11242;DHT22;5678;52.370;9.006;2023-12-07T11:47:05;5.40;1.00
11242;DHT22;5678;52.370;9.006;2023-12-07T11:49:33;5.70;1.00
11242;DHT22;5678;52.370;9.006;2023-12-07T11:52:13;5.50;1.00
11242;DHT22;5678;52.370;9.006;2023-12-07T11:54:43;4.30;1.00
11242;DHT22;5678;52.370;9.006;2023-12-07T11:57:13;5.10;99.90
11242;DHT22;5678;52.370;9.006;2023-12-07T11:59:44;5.60;99.90
11242;DHT22;5678;52.370;9.006;2023-12-07T12:02:13;5.20;1.00
11242;DHT22;5678;52.370;9.006;2023-12-07T12:04:42;4.70;1.00
11242;DHT22;5678;52.370;9.006;2023-12-07T12:07:11;5.30;1.00
11242;DHT22;5678;52.370;9.006;2023-12-07T12:09:39;4.40;1.00
11242;DHT22;5678;52.370;9.006;2023-12-07T12:12:07;5.40;99.90
11242;DHT22;5678;52.370;9.006;2023-12-07T12:14:35;4.50;1.00
11242;DHT22;5678;52.370;9.006;2023-12-07T12:17:05;5.30;99.90
11242;DHT22;5678;52.370;9.006;2023-12-07T12:19:33;5.20;1.00
11242;DHT22;5678;52.370;9.006;2023-12-07T12:22:03;5.60;99.90
11242;DHT22;5678;52.370;9.006;2023-12-07T12:24:35;4.70;1.00
11242;DHT22;5678;52.370;9.006;2023-12-07T12:27:04;5.50;99.90
11242;DHT22;5678;52.370;9.006;2023-12-07T12:29:33;4.60;1.00
11242;DHT22;5678;52.370;9.006;2023-12-07T12:32:02;5.60;1.00
11242;DHT22;5678;52.370;9.006;2023-12-07T12:34:33;4.60;1.00
11242;DHT22;5678;52.370;9.006;2023-12-07T12:37:03;5.70;1.00
11242;DHT22;5678;52.370;9.006;2023-12-07T12:39:34;4.50;99.90
11242;DHT22;5678;52.370;9.006;2023-12-07T12:42:03;4.70;99.90
11242;DHT22;5678;52.370;9.006;2023-12-07T12:44:32;4.30;1.00
11242;DHT22;5678;52.370;9.006;2023-12-07T12:47:05;4.00;99.90
11242;DHT22;5678;52.370;9.006;2023-12-07T12:49:37;4.20;1.00
11242;DHT22;5678;52.370;9.006;2023-12-07T12:52:10;5.10;1.00
11242;DHT22;5678;52.370;9.006;2023-12-07T12:54:39;4.80;99.90
11242;DHT22;5678;52.370;9.006;2023-12-07T12:57:10;4.40;1.00
11242;DHT22;5678;52.370;9.006;2023-12-07T12:59:38;5.00;99.90
11242;DHT22;5678;52.370;9.006;2023-12-07T13:02:06;4.40;45.90
11242;DHT22;5678;52.370;9.006;2023-12-07T13:04:37;4.60;99.90
11242;DHT22;5678;52.370;9.006;2023-12-07T13:07:08;4.40;1.00
11242;DHT22;5678;52.370;9.006;2023-12-07T13:09:37;5.80;99.90
11242;DHT22;5678;52.370;9.006;2023-12-07T13:12:06;4.20;1.00
11242;DHT22;5678;52.370;9.006;2023-12-07T13:14:34;3.80;99.90
11242;DHT22;5678;52.370;9.006;2023-12-07T13:17:04;4.40;99.90
11242;DHT22;5678;52.370;9.006;2023-12-07T13:19:34;3.80;94.60
11242;DHT22;5678;52.370;9.006;2023-12-07T13:22:04;3.80;99.90
11242;DHT22;5678;52.370;9.006;2023-12-07T13:24:33;3.80;99.90
11242;DHT22;5678;52.370;9.006;2023-12-07T13:27:02;3.60;99.90
11242;DHT22;5678;52.370;9.006;2023-12-07T13:29:30;3.70;99.90
11242;DHT22;5678;52.370;9.006;2023-12-07T13:32:03;4.00;1.00
11242;DHT22;5678;52.370;9.006;2023-12-07T13:34:31;3.70;65.10
11242;DHT22;5678;52.370;9.006;2023-12-07T13:36:59;3.70;1.00
11242;DHT22;5678;52.370;9.006;2023-12-07T13:39:29;3.50;99.90
11242;DHT22;5678;52.370;9.006;2023-12-07T13:41:58;3.50;1.00
11242;DHT22;5678;52.370;9.006;2023-12-07T13:44:30;3.50;1.00
11242;DHT22;5678;52.370;9.006;2023-12-07T13:46:59;3.50;1.00
11242;DHT22;5678;52.370;9.006;2023-12-07T13:49:28;3.40;1.00
11242;DHT22;5678;52.370;9.006;2023-12-07T13:52:00;3.90;99.90
11242;DHT22;5678;52.370;9.006;2023-12-07T13:54:35;3.30;1.00
11242;DHT22;5678;52.370;9.006;2023-12-07T13:57:06;3.30;1.00
11242;DHT22;5678;52.370;9.006;2023-12-07T13:59:35;3.30;99.90
11242;DHT22;5678;52.370;9.006;2023-12-07T14:02:04;3.20;71.90
11242;DHT22;5678;52.370;9.006;2023-12-07T14:04:33;3.10;99.90
11242;DHT22;5678;52.370;9.006;2023-12-07T14:07:09;3.10;99.90
11242;DHT22;5678;52.370;9.006;2023-12-07T14:09:42;3.10;1.00
11242;DHT22;5678;52.370;9.006;2023-12-07T14:12:23;3.00;1.00
11242;DHT22;5678;52.370;9.006;2023-12-07T14:14:51;3.00;1.00
11242;DHT22;5678;52.370;9.006;2023-12-07T14:17:21;2.90;1.00
11242;DHT22;5678;52.370;9.006;2023-12-07T14:20:04;2.90;1.00
11242;DHT22;5678;52.370;9.006;2023-12-07T14:22:52;2.80;1.00
11242;DHT22;5678;52.370;9.006;2023-12-07T14:25:22;2.80;99.90
11242;DHT22;5678;52.370;9.006;2023-12-07T14:27:50;2.70;99.90
11242;DHT22;5678;52.370;9.006;2023-12-07T14:30:18;2.60;99.90
11242;DHT22;5678;52.370;9.006;2023-12-07T14:32:46;2.60;99.90
11242;DHT22;5678;52.370;9.006;2023-12-07T14:35:19;2.50;99.90
11242;DHT22;5678;52.370;9.006;2023-12-07T14:37:48;2.50;99.90
11242;DHT22;5678;52.370;9.006;2023-12-07T14:40:17;2.40;99.90
11242;DHT22;5678;52.370;9.006;2023-12-07T14:42:47;2.40;1.00
11242;DHT22;5678;52.370;9.006;2023-12-07T14:45:15;2.30;1.00
11242;DHT22;5678;52.370;9.006;2023-12-07T14:47:47;2.20;1.00
11242;DHT22;5678;52.370;9.006;2023-12-07T14:50:16;2.30;1.00
11242;DHT22;5678;52.370;9.006;2023-12-07T14:52:44;2.00;1.00
11242;DHT22;5678;52.370;9.006;2023-12-07T14:55:12;2.00;1.00
11242;DHT22;5678;52.370;9.006;2023-12-07T14:57:40;2.40;1.00
11242;DHT22;5678;52.370;9.006;2023-12-07T15:00:10;1.90;1.00
11242;DHT22;5678;52.370;9.006;2023-12-07T15:02:38;1.80;1.00
11242;DHT22;5678;52.370;9.006;2023-12-07T15:05:07;1.70;1.00
11242;DHT22;5678;52.370;9.006;2023-12-07T15:07:35;1.70;1.00
11242;DHT22;5678;52.370;9.006;2023-12-07T15:10:04;2.20;1.00
11242;DHT22;5678;52.370;9.006;2023-12-07T15:12:32;1.50;1.00
11242;DHT22;5678;52.370;9.006;2023-12-07T15:15:01;1.40;1.00
11242;DHT22;5678;52.370;9.006;2023-12-07T15:17:34;1.40;1.00
11242;DHT22;5678;52.370;9.006;2023-12-07T15:20:02;1.30;1.00
11242;DHT22;5678;52.370;9.006;2023-12-07T15:22:31;1.30;1.00
11242;DHT22;5678;52.370;9.006;2023-12-07T15:24:59;1.20;1.00
11242;DHT22;5678;52.370;9.006;2023-12-07T15:27:27;1.00;1.00
11242;DHT22;5678;52.370;9.006;2023-12-07T15:29:55;0.90;1.00
11242;DHT22;5678;52.370;9.006;2023-12-07T15:32:23;0.60;1.00
11242;DHT22;5678;52.370;9.006;2023-12-07T15:34:52;0.70;1.00
11242;DHT22;5678;52.370;9.006;2023-12-07T15:37:23;0.50;1.00
11242;DHT22;5678;52.370;9.006;2023-12-07T15:39:51;0.40;1.00
11242;DHT22;5678;52.370;9.006;2023-12-07T15:42:19;0.40;1.00
11242;DHT22;5678;52.370;9.006;2023-12-07T15:44:47;0.30;1.00
11242;DHT22;5678;52.370;9.006;2023-12-07T15:47:16;0.70;1.00
11242;DHT22;5678;52.370;9.006;2023-12-07T15:49:44;0.20;1.00
11242;DHT22;5678;52.370;9.006;2023-12-07T15:52:14;0.00;1.00
11242;DHT22;5678;52.370;9.006;2023-12-07T15:54:42;-0.10;1.00
11242;DHT22;5678;52.370;9.006;2023-12-07T15:57:10;0.20;1.00
11242;DHT22;5678;52.370;9.006;2023-12-07T15:59:39;-0.10;1.00
11242;DHT22;5678;52.370;9.006;2023-12-07T16:02:08;0.10;1.00
11242;DHT22;5678;52.370;9.006;2023-12-07T16:04:37;-0.20;21.00
11242;DHT22;5678;52.370;9.006;2023-12-07T16:07:06;-0.20;94.10
11242;DHT22;5678;52.370;9.006;2023-12-07T16:09:39;-0.20;99.90
11242;DHT22;5678;52.370;9.006;2023-12-07T16:12:09;-0.40;99.90
11242;DHT22;5678;52.370;9.006;2023-12-07T16:14:38;-0.20;99.90
11242;DHT22;5678;52.370;9.006;2023-12-07T16:17:07;-0.10;99.90
11242;DHT22;5678;52.370;9.006;2023-12-07T16:19:35;-0.10;99.90
11242;DHT22;5678;52.370;9.006;2023-12-07T16:22:04;0.00;99.90
11242;DHT22;5678;52.370;9.006;2023-12-07T16:24:34;0.00;99.90
11242;DHT22;5678;52.370;9.006;2023-12-07T16:27:03;0.00;99.90
11242;DHT22;5678;52.370;9.006;2023-12-07T16:29:35;-0.10;99.90
11242;DHT22;5678;52.370;9.006;2023-12-07T16:32:05;-0.10;99.90
11242;DHT22;5678;52.370;9.006;2023-12-07T16:34:33;-0.10;99.90
11242;DHT22;5678;52.370;9.006;2023-12-07T16:37:01;-0.10;99.90
11242;DHT22;5678;52.370;9.006;2023-12-07T16:39:31;-0.10;99.90
11242;DHT22;5678;52.370;9.006;2023-12-07T16:41:59;0.00;99.90
11242;DHT22;5678;52.370;9.006;2023-12-07T16:44:31;0.00;99.90
11242;DHT22;5678;52.370;9.006;2023-12-07T16:46:59;-0.10;99.90
11242;DHT22;5678;52.370;9.006;2023-12-07T16:49:27;0.30;99.90
11242;DHT22;5678;52.370;9.006;2023-12-07T16:51:56;-0.40;99.90
11242;DHT22;5678;52.370;9.006;2023-12-07T16:54:26;-0.30;99.90
11242;DHT22;5678;52.370;9.006;2023-12-07T16:56:54;-0.30;99.90
11242;DHT22;5678;52.370;9.006;2023-12-07T16:59:25;-0.40;99.90
11242;DHT22;5678;52.370;9.006;2023-12-07T17:01:55;-0.20;99.90
11242;DHT22;5678;52.370;9.006;2023-12-07T17:04:23;-0.10;99.90
11242;DHT22;5678;52.370;9.006;2023-12-07T17:06:52;-0.50;99.90
11242;DHT22;5678;52.370;9.006;2023-12-07T17:09:24;0.20;99.90
11242;DHT22;5678;52.370;9.006;2023-12-07T17:11:53;-0.50;99.90
11242;DHT22;5678;52.370;9.006;2023-12-07T17:14:22;-0.60;99.90
11242;DHT22;5678;52.370;9.006;2023-12-07T17:16:50;-0.40;99.90
11242;DHT22;5678;52.370;9.006;2023-12-07T17:19:20;-0.50;99.90
11242;DHT22;5678;52.370;9.006;2023-12-07T17:21:48;-0.30;99.90
11242;DHT22;5678;52.370;9.006;2023-12-07T17:24:19;-0.80;99.90
11242;DHT22;5678;52.370;9.006;2023-12-07T17:26:48;-0.90;99.90
11242;DHT22;5678;52.370;9.006;2023-12-07T17:29:20;-0.70;99.90
11242;DHT22;5678;52.370;9.006;2023-12-07T17:31:49;-0.60;99.90
11242;DHT22;5678;52.370;9.006;2023-12-07T17:34:17;-0.60;99.90
11242;DHT22;5678;52.370;9.006;2023-12-07T17:36:47;-0.70;99.90
11242;DHT22;5678;52.370;9.006;2023-12-07T17:39:15;-0.60;99.90
11242;DHT22;5678;52.370;9.006;2023-12-07T17:41:43;-0.50;99.90
11242;DHT22;5678;52.370;9.006;2023-12-07T17:44:11;-0.40;99.90
11242;DHT22;5678;52.370;9.006;2023-12-07T17:46:39;-0.30;99.90
11242;DHT22;5678;52.370;9.006;2023-12-07T17:49:07;-0.20;99.90
11242;DHT22;5678;52.370;9.006;2023-12-07T17:51:36;-0.10;99.90
11242;DHT22;5678;52.370;9.006;2023-12-07T17:54:06;-0.10;99.90
11242;DHT22;5678;52.370;9.006;2023-12-07T17:56:34;0.00;99.90
11242;DHT22;5678;52.370;9.006;2023-12-07T17:59:02;0.10;99.90
11242;DHT22;5678;52.370;9.006;2023-12-07T18:01:30;-0.10;99.90
11242;DHT22;5678;52.370;9.006;2023-12-07T18:03:58;0.20;99.90
11242;DHT22;5678;52.370;9.006;2023-12-07T18:06:26;-0.10;99.90
11242;DHT22;5678;52.370;9.006;2023-12-07T18:08:55;0.40;99.90
11242;DHT22;5678;52.370;9.006;2023-12-07T18:11:24;-0.10;99.90
11242;DHT22;5678;52.370;9.006;2023-12-07T18:13:52;-0.10;99.90
11242;DHT22;5678;52.370;9.006;2023-12-07T18:16:21;-0.10;99.90
11242;DHT22;5678;52.370;9.006;2023-12-07T18:18:51;-0.10;99.90
11242;DHT22;5678;52.370;9.006;2023-12-07T18:21:19;0.00;99.90
11242;DHT22;5678;52.370;9.006;2023-12-07T18:23:47;0.00;66.30
11242;DHT22;5678;52.370;9.006;2023-12-07T18:26:15;-0.20;39.50
11242;DHT22;5678;52.370;9.006;2023-12-07T18:28:45;0.30;63.50
11242;DHT22;5678;52.370;9.006;2023-12-07T18:31:14;0.00;73.80
11242;DHT22;5678;52.370;9.006;2023-12-07T18:33:43;0.00;44.10
11242;DHT22;5678;52.370;9.006;2023-12-07T18:36:11;0.00;34.10
11242;DHT22;5678;52.370;9.006;2023-12-07T18:38:39;0.00;1.00
11242;DHT22;5678;52.370;9.006;2023-12-07T18:41:07;0.00;1.00
11242;DHT22;5678;52.370;9.006;2023-12-07T18:43:35;0.20;1.00
11242;DHT22;5678;52.370;9.006;2023-12-07T18:46:05;-0.10;1.00
11242;DHT22;5678;52.370;9.006;2023-12-07T18:48:33;-0.10;1.00
11242;DHT22;5678;52.370;9.006;2023-12-07T18:51:02;-0.20;1.00
11242;DHT22;5678;52.370;9.006;2023-12-07T18:53:30;-0.20;1.00
11242;DHT22;5678;52.370;9.006;2023-12-07T18:55:59;-0.20;1.00
11242;DHT22;5678;52.370;9.006;2023-12-07T18:58:27;-0.20;1.00
11242;DHT22;5678;52.370;9.006;2023-12-07T19:00:55;-0.30;1.00
11242;DHT22;5678;52.370;9.006;2023-12-07T19:03:26;-0.30;1.00
11242;DHT22;5678;52.370;9.006;2023-12-07T19:05:54;-0.30;1.00
11242;DHT22;5678;52.370;9.006;2023-12-07T19:08:22;-0.30;1.00
11242;DHT22;5678;52.370;9.006;2023-12-07T19:10:50;0.00;1.00
11242;DHT22;5678;52.370;9.006;2023-12-07T19:13:18;-0.50;1.00
11242;DHT22;5678;52.370;9.006;2023-12-07T19:15:46;-0.40;1.00
11242;DHT22;5678;52.370;9.006;2023-12-07T19:18:16;-0.40;1.00
11242;DHT22;5678;52.370;9.006;2023-12-07T19:20:46;-0.40;1.00
11242;DHT22;5678;52.370;9.006;2023-12-07T19:23:14;-0.40;1.00
11242;DHT22;5678;52.370;9.006;2023-12-07T19:25:42;-0.50;1.00
11242;DHT22;5678;52.370;9.006;2023-12-07T19:28:10;-0.50;1.00
11242;DHT22;5678;52.370;9.006;2023-12-07T19:30:38;-0.50;1.00
11242;DHT22;5678;52.370;9.006;2023-12-07T19:33:06;-0.20;1.00
11242;DHT22;5678;52.370;9.006;2023-12-07T19:35:35;-0.40;1.00
11242;DHT22;5678;52.370;9.006;2023-12-07T19:38:04;-0.20;1.00
11242;DHT22;5678;52.370;9.006;2023-12-07T19:40:32;0.00;1.00
11242;DHT22;5678;52.370;9.006;2023-12-07T19:43:00;-0.90;1.00
11242;DHT22;5678;52.370;9.006;2023-12-07T19:45:28;-0.50;1.00
11242;DHT22;5678;52.370;9.006;2023-12-07T19:47:57;-0.60;1.00
11242;DHT22;5678;52.370;9.006;2023-12-07T19:50:25;0.00;1.00
11242;DHT22;5678;52.370;9.006;2023-12-07T19:52:55;-0.60;1.00
11242;DHT22;5678;52.370;9.006;2023-12-07T19:55:24;-0.50;1.00
11242;DHT22;5678;52.370;9.006;2023-12-07T19:57:57;-0.70;1.00
11242;DHT22;5678;52.370;9.006;2023-12-07T20:00:26;-0.10;1.00
11242;DHT22;5678;52.370;9.006;2023-12-07T20:02:54;-0.90;1.00
11242;DHT22;5678;52.370;9.006;2023-12-07T20:05:22;0.30;1.00
11242;DHT22;5678;52.370;9.006;2023-12-07T20:07:50;-0.10;1.00
11242;DHT22;5678;52.370;9.006;2023-12-07T20:10:19;-1.10;1.00
11242;DHT22;5678;52.370;9.006;2023-12-07T20:12:49;-0.10;1.00
11242;DHT22;5678;52.370;9.006;2023-12-07T20:15:17;-1.10;1.00
11242;DHT22;5678;52.370;9.006;2023-12-07T20:17:45;-0.40;1.00
11242;DHT22;5678;52.370;9.006;2023-12-07T20:20:13;0.20;1.00
11242;DHT22;5678;52.370;9.006;2023-12-07T20:22:41;-1.20;1.00
11242;DHT22;5678;52.370;9.006;2023-12-07T20:25:09;-1.30;11.90
11242;DHT22;5678;52.370;9.006;2023-12-07T20:27:37;-0.60;65.40
11242;DHT22;5678;52.370;9.006;2023-12-07T20:30:08;-0.40;78.20
11242;DHT22;5678;52.370;9.006;2023-12-07T20:32:36;-1.30;99.90
11242;DHT22;5678;52.370;9.006;2023-12-07T20:35:05;-0.10;51.30
11242;DHT22;5678;52.370;9.006;2023-12-07T20:37:34;-1.30;66.60